createdAt,value
2023-03-21T00:00:42.111Z,11.80
2023-03-21T00:03:09.474Z,10.38
2023-03-21T00:05:45.698Z,10.40
2023-03-21T00:08:13.000Z,10.38
2023-03-21T00:10:43.772Z,9.65
2023-03-21T00:13:13.360Z,10.00
2023-03-21T00:18:42.470Z,8.50
2023-03-21T00:24:00.534Z,9.25
2023-03-21T00:26:27.833Z,7.78
2023-03-21T00:28:55.191Z,9.20
2023-03-21T00:31:22.461Z,8.05
2023-03-21T00:33:50.758Z,9.38
2023-03-21T00:36:18.039Z,8.63
2023-03-21T00:38:45.950Z,9.90
2023-03-21T00:41:26.130Z,8.60
2023-03-21T00:44:02.430Z,8.82
2023-03-21T00:46:39.861Z,9.32
2023-03-21T00:49:09.701Z,9.35
2023-03-21T00:51:36.964Z,8.82
2023-03-21T00:54:05.899Z,9.02
2023-03-21T00:56:33.099Z,8.82
2023-03-21T00:59:00.539Z,9.13
2023-03-21T01:01:31.958Z,9.20
2023-03-21T01:04:10.807Z,9.15
2023-03-21T01:06:39.562Z,8.37
2023-03-21T01:09:11.179Z,9.05
2023-03-21T01:11:38.478Z,8.90
2023-03-21T01:14:20.918Z,9.48
2023-03-21T01:16:51.182Z,9.05
2023-03-21T01:19:50.754Z,8.15
2023-03-21T01:22:08.658Z,8.35
2023-03-21T01:24:40.591Z,9.38
2023-03-21T01:27:10.963Z,8.63
2023-03-21T01:29:38.330Z,7.65
2023-03-21T01:32:06.120Z,9.02
2023-03-21T01:34:33.364Z,7.57
2023-03-21T01:37:01.491Z,7.90
2023-03-21T01:39:32.844Z,8.35
2023-03-21T01:42:00.324Z,7.85
2023-03-21T01:44:28.861Z,6.65
2023-03-21T01:47:09.723Z,7.43
2023-03-21T01:49:46.867Z,5.70
2023-03-21T01:52:38.717Z,5.95
2023-03-21T01:55:12.398Z,6.40
2023-03-21T01:58:04.718Z,5.32
2023-03-21T02:00:43.803Z,5.10
2023-03-21T02:03:35.396Z,5.40
2023-03-21T02:06:47.199Z,4.82
2023-03-21T02:09:40.861Z,4.28
2023-03-21T02:12:16.346Z,4.68
2023-03-21T02:14:45.553Z,4.85
2023-03-21T02:17:29.833Z,4.13
2023-03-21T02:20:22.200Z,3.80
2023-03-21T02:23:12.857Z,4.00
2023-03-21T02:25:58.388Z,6.20
2023-03-21T02:28:30.007Z,5.10
2023-03-21T02:31:15.901Z,3.92
2023-03-21T02:34:03.090Z,4.38
2023-03-21T02:36:59.242Z,3.60
2023-03-21T02:39:31.659Z,2.90
2023-03-21T02:42:22.080Z,3.42
2023-03-21T02:45:07.272Z,3.58
2023-03-21T02:47:47.710Z,3.03
2023-03-21T02:50:19.940Z,3.38
2023-03-21T02:52:48.048Z,3.53
2023-03-21T02:55:27.140Z,3.38
2023-03-21T02:58:11.781Z,3.33
2023-03-21T03:00:44.861Z,3.08
2023-03-21T03:03:28.077Z,2.65
2023-03-21T03:06:03.321Z,2.80
2023-03-21T03:11:50.092Z,2.88
2023-03-21T03:14:56.445Z,2.47
2023-03-21T03:17:52.506Z,2.60
2023-03-21T03:20:31.122Z,3.20
2023-03-21T03:23:13.654Z,2.67
2023-03-21T03:25:52.560Z,2.72
2023-03-21T03:28:25.824Z,2.58
2023-03-21T03:31:07.990Z,2.90
2023-03-21T03:33:46.888Z,2.83
2023-03-21T03:36:30.319Z,2.67
2023-03-21T03:39:04.717Z,2.53
2023-03-21T03:42:02.894Z,2.50
2023-03-21T03:44:30.062Z,2.50
2023-03-21T03:47:07.120Z,2.45
2023-03-21T03:49:49.433Z,2.33
2023-03-21T03:52:27.976Z,2.90
2023-03-21T03:55:12.440Z,2.70
2023-03-21T03:57:42.400Z,2.90
2023-03-21T04:00:13.058Z,2.70
2023-03-21T04:02:48.734Z,2.80
2023-03-21T04:05:21.415Z,2.67
2023-03-21T04:07:51.113Z,2.63
2023-03-21T04:10:22.756Z,2.40
2023-03-21T04:12:50.416Z,2.95
2023-03-21T04:15:36.229Z,2.72
2023-03-21T04:18:11.666Z,2.80
2023-03-21T04:20:39.146Z,2.88
2023-03-21T04:23:08.722Z,2.72
2023-03-21T04:25:42.279Z,2.70
2023-03-21T04:28:15.073Z,2.90
2023-03-21T04:31:02.487Z,3.15
2023-03-21T04:33:41.537Z,2.60
2023-03-21T04:36:09.696Z,2.58
2023-03-21T04:38:38.115Z,2.63
2023-03-21T04:41:05.832Z,2.83
2023-03-21T04:43:33.049Z,2.53
2023-03-21T04:46:00.435Z,2.75
2023-03-21T04:48:28.156Z,2.58
2023-03-21T04:50:56.713Z,2.85
2023-03-21T04:53:24.057Z,2.65
2023-03-21T04:55:54.871Z,2.60
2023-03-21T04:58:22.696Z,2.85
2023-03-21T05:00:53.006Z,2.60
2023-03-21T05:03:21.979Z,2.65
2023-03-21T05:05:49.503Z,2.70
2023-03-21T05:08:19.048Z,2.88
2023-03-21T05:10:46.387Z,2.72
2023-03-21T05:13:13.769Z,2.78
2023-03-21T05:15:41.036Z,3.42
2023-03-21T05:18:11.212Z,2.90
2023-03-21T05:20:54.464Z,3.40
2023-03-21T05:23:23.625Z,2.80
2023-03-21T05:25:51.613Z,3.67
2023-03-21T05:28:31.806Z,3.22
2023-03-21T05:31:00.964Z,3.35
2023-03-21T05:33:28.280Z,3.35
2023-03-21T05:35:55.952Z,3.22
2023-03-21T05:38:25.416Z,3.60
2023-03-21T05:40:54.576Z,3.17
2023-03-21T05:43:21.889Z,3.85
2023-03-21T05:45:49.387Z,3.42
2023-03-21T05:48:18.542Z,3.38
2023-03-21T05:51:01.695Z,3.15
2023-03-21T05:53:29.392Z,3.45
2023-03-21T05:55:57.517Z,3.38
2023-03-21T05:58:41.089Z,3.63
2023-03-21T06:01:09.106Z,3.85
2023-03-21T06:03:38.839Z,3.80
2023-03-21T06:06:26.907Z,4.22
2023-03-21T06:08:56.843Z,3.83
2023-03-21T06:11:37.267Z,4.53
2023-03-21T06:14:20.787Z,4.05
2023-03-21T06:17:06.093Z,4.20
2023-03-21T06:22:07.440Z,3.92
2023-03-21T06:24:37.644Z,4.10
2023-03-21T06:27:05.721Z,4.07
2023-03-21T06:29:46.347Z,4.00
2023-03-21T06:32:13.912Z,4.00
2023-03-21T06:34:41.863Z,3.90
2023-03-21T06:37:12.734Z,3.47
2023-03-21T06:39:40.534Z,3.67
2023-03-21T06:42:08.827Z,4.07
2023-03-21T06:44:36.283Z,3.95
2023-03-21T06:47:07.718Z,4.75
2023-03-21T06:49:35.529Z,4.22
2023-03-21T06:52:08.432Z,4.03
2023-03-21T06:54:36.310Z,4.78
2023-03-21T06:57:10.456Z,3.80
2023-03-21T06:59:41.635Z,4.60
2023-03-21T07:02:18.903Z,4.95
2023-03-21T07:04:59.279Z,5.32
2023-03-21T07:07:29.773Z,5.20
2023-03-21T07:09:57.230Z,5.35
2023-03-21T07:12:26.325Z,5.85
2023-03-21T07:15:12.241Z,5.82
2023-03-21T07:17:41.226Z,5.95
2023-03-21T07:20:09.154Z,5.93
2023-03-21T07:22:36.558Z,5.45
2023-03-21T07:25:05.642Z,5.30
2023-03-21T07:27:40.870Z,5.65
2023-03-21T07:30:10.236Z,5.55
2023-03-21T07:32:40.513Z,5.32
2023-03-21T07:35:11.688Z,5.10
2023-03-21T07:37:40.030Z,5.18
2023-03-21T07:40:12.376Z,5.60
2023-03-21T07:42:41.346Z,6.05
2023-03-21T07:45:11.137Z,5.30
2023-03-21T07:47:38.521Z,5.32
2023-03-21T07:50:06.323Z,5.53
2023-03-21T07:52:33.597Z,5.38
2023-03-21T07:55:00.924Z,8.05
2023-03-21T07:57:28.450Z,5.93
2023-03-21T07:59:55.743Z,6.47
2023-03-21T08:02:23.054Z,6.03
2023-03-21T08:04:50.736Z,6.35
2023-03-21T08:07:18.352Z,6.25
2023-03-21T08:09:45.822Z,5.57
2023-03-21T08:12:13.537Z,5.55
2023-03-21T08:14:40.788Z,5.70
2023-03-21T08:17:09.591Z,5.35
2023-03-21T08:19:37.609Z,5.22
2023-03-21T08:22:06.679Z,5.65
2023-03-21T08:24:34.276Z,5.50
2023-03-21T08:27:02.143Z,5.55
2023-03-21T08:29:29.440Z,5.88
2023-03-21T08:31:58.123Z,5.95
2023-03-21T08:34:26.996Z,5.15
2023-03-21T08:36:54.510Z,5.38
2023-03-21T08:39:21.945Z,5.70
2023-03-21T08:41:49.316Z,4.78
2023-03-21T08:44:17.144Z,4.80
2023-03-21T08:46:44.527Z,5.00
2023-03-21T08:49:12.508Z,5.47
2023-03-21T08:51:41.160Z,4.70
2023-03-21T08:54:08.792Z,5.47
2023-03-21T08:56:37.491Z,4.78
2023-03-21T08:59:04.932Z,5.40
2023-03-21T09:01:32.724Z,4.80
2023-03-21T09:04:00.281Z,4.55
2023-03-21T09:06:28.025Z,5.07
2023-03-21T09:08:55.355Z,4.30
2023-03-21T09:11:22.969Z,4.38
2023-03-21T09:13:50.194Z,4.63
2023-03-21T09:16:17.570Z,4.38
2023-03-21T09:18:45.330Z,4.20
2023-03-21T09:21:15.541Z,5.03
2023-03-21T09:26:13.752Z,4.68
2023-03-21T09:28:41.071Z,3.90
2023-03-21T09:31:11.705Z,5.07
2023-03-21T09:33:42.464Z,4.50
2023-03-21T09:36:18.774Z,4.72
2023-03-21T09:38:47.351Z,4.47
2023-03-21T09:41:47.307Z,4.30
2023-03-21T09:44:56.481Z,4.05
2023-03-21T09:47:33.068Z,5.00
2023-03-21T09:50:13.595Z,4.03
2023-03-21T09:52:53.712Z,3.50
2023-03-21T09:55:26.280Z,3.60
2023-03-21T09:58:04.435Z,3.72
2023-03-21T10:00:40.219Z,3.90
2023-03-21T10:03:18.103Z,3.85
2023-03-21T10:05:49.139Z,4.03
2023-03-21T10:08:24.632Z,3.90
2023-03-21T10:10:54.731Z,3.80
2023-03-21T10:16:16.928Z,3.70
2023-03-21T10:18:45.604Z,3.80
2023-03-21T10:21:47.460Z,4.25
2023-03-21T10:24:11.568Z,3.65
2023-03-21T10:29:07.528Z,3.75
2023-03-21T10:31:35.837Z,3.90
2023-03-21T10:34:10.886Z,3.83
2023-03-21T10:36:38.586Z,3.63
2023-03-21T10:39:17.461Z,3.63
2023-03-21T10:41:44.920Z,4.68
2023-03-21T10:44:15.033Z,6.00
2023-03-21T10:46:53.340Z,3.47
2023-03-21T10:49:21.647Z,3.45
2023-03-21T10:51:57.409Z,3.50
2023-03-21T10:54:35.605Z,3.25
2023-03-21T10:57:08.934Z,4.07
2023-03-21T10:59:49.694Z,3.00
2023-03-21T11:02:24.920Z,3.17
2023-03-21T11:04:56.105Z,3.10
2023-03-21T11:07:27.219Z,3.78
2023-03-21T11:10:00.635Z,3.85
2023-03-21T11:12:40.806Z,3.17
2023-03-21T11:15:27.401Z,4.50
2023-03-21T11:17:55.100Z,5.90
2023-03-21T11:20:22.732Z,4.55
2023-03-21T11:22:54.696Z,4.60
2023-03-21T11:25:27.804Z,3.90
2023-03-21T11:27:56.102Z,3.60
2023-03-21T11:30:26.246Z,4.30
2023-03-21T11:37:56.793Z,20.00
2023-03-21T11:40:27.730Z,13.70
2023-03-21T11:43:05.069Z,10.07
2023-03-21T11:45:35.537Z,7.13
2023-03-21T11:48:15.117Z,6.32
2023-03-21T11:50:47.763Z,4.47
2023-03-21T11:53:28.068Z,5.85
2023-03-21T11:56:04.581Z,11.20
2023-03-21T11:59:08.078Z,18.05
2023-03-21T12:01:44.563Z,9.05
2023-03-21T12:04:37.034Z,8.50
2023-03-21T12:07:28.357Z,15.60
2023-03-21T12:10:24.279Z,14.70
2023-03-21T12:13:03.548Z,11.13
2023-03-21T12:15:41.045Z,18.75
2023-03-21T12:18:11.525Z,8.48
2023-03-21T12:20:45.679Z,10.23
2023-03-21T12:23:36.965Z,6.18
2023-03-21T12:26:37.526Z,7.03
2023-03-21T12:29:22.756Z,4.68
2023-03-21T12:32:06.062Z,4.03
2023-03-21T12:34:58.665Z,3.58
2023-03-21T12:38:05.187Z,3.40
2023-03-21T12:40:55.757Z,3.95
2023-03-21T12:43:32.237Z,3.70
2023-03-21T12:46:11.120Z,5.60
2023-03-21T12:48:52.401Z,5.03
2023-03-21T12:51:23.750Z,4.88
2023-03-21T12:54:00.144Z,3.85
2023-03-21T12:56:44.518Z,3.60
2023-03-21T12:59:32.339Z,4.20
2023-03-21T13:02:02.950Z,4.80
2023-03-21T13:04:40.770Z,4.32
2023-03-21T13:07:11.739Z,4.60
2023-03-21T13:09:40.935Z,4.35
2023-03-21T13:12:32.459Z,3.10
2023-03-21T13:15:24.686Z,2.47
2023-03-21T13:18:04.965Z,2.60
2023-03-21T13:23:13.541Z,9.70
2023-03-21T13:25:48.845Z,2.97
2023-03-21T13:28:20.760Z,2.58
2023-03-21T13:30:49.056Z,2.08
2023-03-21T13:33:24.002Z,3.20
2023-03-21T13:36:06.218Z,2.83
2023-03-21T13:38:35.510Z,2.47
2023-03-21T13:41:07.507Z,2.33
2023-03-21T13:43:55.006Z,2.28
2023-03-21T13:46:25.153Z,2.15
2023-03-21T13:51:29.252Z,2.42
2023-03-21T13:54:03.019Z,2.42
2023-03-21T13:56:53.464Z,2.47
2023-03-21T13:59:32.912Z,4.45
2023-03-21T14:02:01.111Z,2.97
2023-03-21T14:04:41.899Z,2.70
2023-03-21T14:07:18.943Z,2.50
2023-03-21T14:09:48.125Z,2.05
2023-03-21T14:12:21.264Z,2.78
2023-03-21T14:14:55.203Z,2.60
2023-03-21T14:17:26.205Z,2.67
2023-03-21T14:19:55.800Z,3.17
2023-03-21T14:22:23.398Z,2.53
2023-03-21T14:25:00.612Z,2.72
2023-03-21T14:27:33.627Z,2.30
2023-03-21T14:30:02.000Z,3.20
2023-03-21T14:32:30.431Z,2.50
2023-03-21T14:35:00.521Z,2.60
2023-03-21T14:40:27.334Z,2.85
2023-03-21T14:42:55.317Z,2.28
2023-03-21T14:45:26.810Z,2.08
2023-03-21T14:47:59.585Z,2.15
2023-03-21T14:50:36.816Z,2.05
2023-03-21T14:53:04.356Z,1.73
2023-03-21T14:55:32.048Z,2.00
2023-03-21T14:57:59.357Z,2.20
2023-03-21T15:00:30.679Z,2.25
2023-03-21T15:02:59.389Z,2.33
2023-03-21T15:05:30.108Z,1.90
2023-03-21T15:08:15.607Z,1.98
2023-03-21T15:11:05.998Z,2.00
2023-03-21T15:13:52.444Z,1.75
2023-03-21T15:16:19.908Z,1.80
2023-03-21T15:18:47.679Z,3.50
2023-03-21T15:21:19.858Z,2.05
2023-03-21T15:23:48.611Z,2.13
2023-03-21T15:26:18.161Z,1.90
2023-03-21T15:28:47.715Z,2.10
2023-03-21T15:31:19.833Z,2.00
2023-03-21T15:33:48.573Z,2.13
2023-03-21T15:36:26.150Z,2.38
2023-03-21T15:38:54.322Z,1.90
2023-03-21T15:41:21.518Z,3.42
2023-03-21T15:43:53.981Z,2.92
2023-03-21T15:46:33.610Z,2.47
2023-03-21T15:49:08.720Z,4.43
2023-03-21T15:51:36.486Z,1.73
2023-03-21T15:54:03.892Z,1.92
2023-03-21T15:56:34.771Z,1.92
2023-03-21T15:59:04.656Z,2.33
2023-03-21T16:01:38.861Z,2.05
2023-03-21T16:04:10.528Z,2.08
2023-03-21T16:06:39.657Z,2.10
2023-03-21T16:09:14.369Z,1.70
2023-03-21T16:11:43.633Z,2.20
2023-03-21T16:14:10.972Z,1.98
2023-03-21T16:16:38.362Z,1.90
2023-03-21T16:19:07.404Z,1.95
2023-03-21T16:21:38.136Z,2.15
2023-03-21T16:24:06.339Z,2.00
2023-03-21T16:26:37.465Z,2.47
2023-03-21T16:29:07.155Z,2.75
2023-03-21T16:31:37.302Z,2.80
2023-03-21T16:34:05.230Z,2.28
2023-03-21T16:36:40.181Z,2.20
2023-03-21T16:39:18.673Z,2.30
2023-03-21T16:41:46.669Z,2.58
2023-03-21T16:44:14.118Z,2.60
2023-03-21T16:46:41.384Z,2.83
2023-03-21T16:49:20.089Z,2.42
2023-03-21T16:51:48.815Z,2.92
2023-03-21T16:54:17.563Z,3.10
2023-03-21T16:56:49.502Z,2.60
2023-03-21T16:59:16.961Z,2.60
2023-03-21T17:01:46.306Z,2.50
2023-03-21T17:04:14.998Z,3.05
2023-03-21T17:06:51.129Z,3.05
2023-03-21T17:09:23.261Z,3.08
2023-03-21T17:11:51.872Z,3.40
2023-03-21T17:14:21.506Z,3.58
2023-03-21T17:16:49.254Z,3.90
2023-03-21T17:19:24.381Z,3.13
2023-03-21T17:21:51.697Z,3.35
2023-03-21T17:24:19.093Z,3.40
2023-03-21T17:26:46.432Z,3.38
2023-03-21T17:29:15.526Z,3.60
2023-03-21T17:31:47.287Z,3.47
2023-03-21T17:34:15.613Z,3.35
2023-03-21T17:36:44.515Z,3.40
2023-03-21T17:39:23.949Z,3.47
2023-03-21T17:41:52.268Z,3.55
2023-03-21T17:44:20.462Z,3.40
2023-03-21T17:46:51.046Z,3.60
2023-03-21T17:49:19.942Z,3.72
2023-03-21T17:51:47.355Z,3.63
2023-03-21T17:54:14.749Z,3.40
2023-03-21T17:56:42.154Z,3.95
2023-03-21T17:59:13.082Z,4.32
2023-03-21T18:01:41.471Z,4.28
2023-03-21T18:04:08.916Z,4.00
2023-03-21T18:06:37.439Z,4.20
2023-03-21T18:09:10.975Z,4.55
2023-03-21T18:11:39.293Z,5.05
2023-03-21T18:14:16.201Z,4.95
2023-03-21T18:16:44.593Z,5.03
2023-03-21T18:19:15.357Z,5.32
2023-03-21T18:21:45.281Z,5.00
2023-03-21T18:24:13.928Z,5.53
2023-03-21T18:26:41.761Z,5.53
2023-03-21T18:30:13.090Z,5.63
2023-03-21T18:32:06.820Z,5.35
2023-03-21T18:34:38.990Z,6.75
2023-03-21T18:37:08.426Z,6.97
2023-03-21T18:39:37.131Z,8.05
2023-03-21T18:42:06.595Z,8.80
2023-03-21T18:44:38.989Z,8.02
2023-03-21T18:47:07.839Z,6.43
2023-03-21T18:52:23.572Z,6.57
2023-03-21T18:54:50.844Z,6.78
2023-03-21T19:00:13.839Z,7.38
2023-03-21T19:02:46.716Z,7.43
2023-03-21T19:05:16.500Z,6.72
2023-03-21T19:07:43.881Z,6.63
2023-03-21T19:10:18.038Z,7.53
2023-03-21T19:12:45.916Z,6.50
2023-03-21T19:15:13.592Z,6.13
2023-03-21T19:20:28.833Z,10.90
2023-03-21T19:22:56.413Z,9.13
2023-03-21T19:25:23.794Z,9.10
2023-03-21T19:27:52.317Z,7.90
2023-03-21T19:30:19.765Z,7.70
2023-03-21T19:32:47.240Z,7.13
2023-03-21T19:35:14.967Z,5.70
2023-03-21T19:37:43.155Z,5.75
2023-03-21T19:40:11.248Z,5.80
2023-03-21T19:42:38.563Z,6.88
2023-03-21T19:45:06.320Z,7.82
2023-03-21T19:47:33.597Z,9.50
2023-03-21T19:50:47.257Z,8.10
2023-03-21T19:52:48.467Z,6.68
2023-03-21T19:55:16.357Z,7.15
2023-03-21T19:57:43.660Z,7.30
2023-03-21T20:00:11.551Z,6.97
2023-03-21T20:02:39.150Z,6.40
2023-03-21T20:05:08.118Z,6.68
2023-03-21T20:07:35.987Z,5.45
2023-03-21T20:10:04.560Z,5.60
2023-03-21T20:12:33.267Z,5.53
2023-03-21T20:15:16.096Z,5.57
2023-03-21T20:17:44.405Z,5.68
2023-03-21T20:20:15.417Z,5.30
2023-03-21T20:23:05.688Z,6.88
2023-03-21T20:25:33.243Z,6.65
2023-03-21T20:28:15.064Z,7.60
2023-03-21T20:30:53.005Z,11.20
2023-03-21T20:33:20.477Z,6.75
2023-03-21T20:38:37.133Z,5.72
2023-03-21T20:41:06.434Z,5.30
2023-03-21T20:44:24.460Z,5.53
2023-03-21T20:46:21.541Z,4.95
2023-03-21T20:48:49.637Z,5.50
2023-03-21T20:52:24.240Z,4.75
2023-03-21T20:54:05.198Z,4.72
2023-03-21T20:56:32.843Z,4.75
2023-03-21T20:59:14.985Z,5.65
2023-03-21T21:01:45.374Z,5.95
2023-03-21T21:04:19.212Z,6.18
2023-03-21T21:06:47.885Z,6.28
2023-03-21T21:09:16.047Z,6.57
2023-03-21T21:12:06.233Z,7.80
2023-03-21T21:14:30.668Z,6.40
2023-03-21T21:16:58.898Z,5.53
2023-03-21T21:19:27.160Z,5.15
2023-03-21T21:21:54.511Z,5.60
2023-03-21T21:24:21.794Z,5.47
2023-03-21T21:26:49.609Z,5.22
2023-03-21T21:29:17.722Z,4.80
2023-03-21T21:31:51.036Z,5.05
2023-03-21T21:34:20.006Z,5.30
2023-03-21T21:36:47.709Z,4.72
2023-03-21T21:39:15.695Z,4.95
2023-03-21T21:41:43.270Z,4.80
2023-03-21T21:44:11.053Z,5.18
2023-03-21T21:46:38.838Z,9.40
2023-03-21T21:49:06.641Z,6.57
2023-03-21T21:51:35.082Z,5.65
2023-03-21T21:54:03.948Z,5.10
2023-03-21T21:56:35.084Z,6.38
2023-03-21T21:59:03.870Z,5.72
2023-03-21T22:01:34.725Z,5.40
2023-03-21T22:04:08.463Z,5.10
2023-03-21T22:06:35.693Z,5.32
2023-03-21T22:09:06.963Z,4.32
2023-03-21T22:11:34.444Z,5.25
2023-03-21T22:14:02.188Z,4.95
2023-03-21T22:16:29.398Z,4.97
2023-03-21T22:18:56.742Z,4.45
2023-03-21T22:21:24.347Z,4.60
2023-03-21T22:23:51.673Z,4.60
2023-03-21T22:26:19.151Z,4.68
2023-03-21T22:28:46.520Z,5.05
2023-03-21T22:31:18.354Z,4.53
2023-03-21T22:33:46.064Z,4.30
2023-03-21T22:36:13.336Z,4.28
2023-03-21T22:38:42.027Z,4.38
2023-03-21T22:41:09.512Z,4.10
2023-03-21T22:43:36.887Z,4.03
2023-03-21T22:46:05.744Z,4.22
2023-03-21T22:48:33.106Z,4.47
2023-03-21T22:51:00.800Z,5.10
2023-03-21T22:53:28.483Z,4.82
2023-03-21T22:55:55.961Z,4.30
2023-03-21T22:58:23.705Z,4.30
2023-03-21T23:00:51.270Z,4.32
2023-03-21T23:03:19.057Z,4.07
2023-03-21T23:05:46.338Z,4.20
2023-03-21T23:08:13.621Z,4.75
2023-03-21T23:10:43.879Z,12.88
2023-03-21T23:13:11.875Z,5.50
2023-03-21T23:15:39.661Z,6.55
2023-03-21T23:18:07.030Z,4.90
2023-03-21T23:20:34.222Z,4.90
2023-03-21T23:23:01.824Z,4.80
2023-03-21T23:25:30.333Z,4.78
2023-03-21T23:27:57.649Z,4.60
2023-03-21T23:30:25.414Z,4.38
2023-03-21T23:32:52.693Z,4.38
2023-03-21T23:35:19.911Z,4.38
2023-03-21T23:37:53.169Z,4.05
2023-03-21T23:40:21.201Z,4.38
2023-03-21T23:42:48.618Z,4.35
2023-03-21T23:45:16.272Z,4.03
2023-03-21T23:47:43.930Z,3.75
2023-03-21T23:50:11.610Z,4.10
2023-03-21T23:52:41.667Z,3.95
2023-03-21T23:55:09.410Z,4.35
2023-03-21T23:57:38.265Z,4.20
